Time;durP1;ratioP1;P1;durP2;ratioP2;P2;SDS_P1;SDS_P2;PMS_P1;PMS_P2;Temp;Humidity;BMP_temperature;BMP_pressure;BME280_temperature;BME280_humidity;BME280_pressure;Samples;Min_cycle;Max_cycle;Signal;HPM_P1;HPM_P2
2023/02/21 02:15:14;;;;;;;28.05;9.90;;;9.50;99.90;;;;;;6216833;23;20448;-83
2023/02/21 02:18:07;;;;;;;33.75;10.27;;;9.70;99.90;;;;;;6191744;23;20078;-85
2023/02/21 02:21:10;;;;;;;17.95;8.90;;;10.00;99.90;;;;;;6192383;23;20014;-82
2023/02/21 02:24:04;;;;;;;21.45;8.63;;;9.60;99.90;;;;;;6191666;23;20293;-85
2023/02/21 02:26:35;;;;;;;23.85;10.20;;;9.80;99.90;;;;;;6216312;23;20102;-83
2023/02/21 02:29:40;;;;;;;27.85;10.05;;;9.60;99.90;;;;;;6191948;23;20023;-83
2023/02/21 02:32:09;;;;;;;30.50;10.68;;;10.00;99.90;;;;;;6190606;23;20091;-84
2023/02/21 02:34:58;;;;;;;29.40;10.23;;;9.90;99.90;;;;;;6191077;23;20023;-83
2023/02/21 02:37:46;;;;;;;23.10;10.85;;;9.70;99.90;;;;;;6189219;23;20027;-85
2023/02/21 02:40:14;;;;;;;26.70;10.20;;;9.70;99.90;;;;;;6191119;23;20285;-85
2023/02/21 02:42:46;;;;;;;24.50;9.45;;;9.90;99.90;;;;;;6245738;23;20019;-82
2023/02/21 02:45:21;;;;;;;25.60;10.95;;;10.00;99.90;;;;;;6219506;23;20269;-85
2023/02/21 02:47:49;;;;;;;;;;;9.60;99.90;;;;;;6217329;23;20048;-84
2023/02/21 02:50:16;;;;;;;25.77;10.35;;;9.90;99.90;;;;;;6193244;23;19987;-82
2023/02/21 02:52:53;;;;;;;20.83;10.93;;;9.60;99.90;;;;;;6192826;23;20074;-82
2023/02/21 02:55:50;;;;;;;26.98;11.48;;;9.70;99.90;;;;;;6192632;23;20435;-86
2023/02/21 02:58:19;;;;;;;27.23;11.38;;;9.60;99.90;;;;;;6192712;23;20183;-82
2023/02/21 03:01:06;;;;;;;25.58;11.43;;;9.50;99.90;;;;;;6200308;23;20067;-82
2023/02/21 03:03:48;;;;;;;26.23;11.55;;;9.60;99.90;;;;;;6204860;23;20065;-83
2023/02/21 03:06:39;;;;;;;29.98;12.68;;;9.80;99.90;;;;;;6243475;22;20004;-82
2023/02/21 03:09:21;;;;;;;33.38;12.48;;;9.50;99.90;;;;;;6266393;22;20103;-82
2023/02/21 03:12:24;;;;;;;14.63;7.95;;;9.30;99.90;;;;;;6245845;23;20039;-81
2023/02/21 03:15:03;;;;;;;27.75;12.57;;;9.70;99.90;;;;;;6192817;23;20063;-82
2023/02/21 03:17:33;;;;;;;28.92;13.05;;;9.60;99.90;;;;;;6191046;23;20012;-83
2023/02/21 03:20:01;;;;;;;28.13;12.85;;;9.30;99.90;;;;;;6216117;23;20070;-83
2023/02/21 03:22:29;;;;;;;29.58;12.70;;;9.50;99.90;;;;;;6192428;23;20408;-85
2023/02/21 03:24:57;;;;;;;24.58;9.93;;;9.40;99.90;;;;;;6244421;23;20055;-85
2023/02/21 03:27:25;;;;;;;29.77;13.40;;;9.60;99.90;;;;;;6192036;23;20095;-83
2023/02/21 03:29:52;;;;;;;32.55;13.25;;;9.60;99.90;;;;;;6192025;23;20420;-83
2023/02/21 03:34:55;;;;;;;24.42;12.15;;;9.60;99.90;;;;;;6216569;23;20020;-86
2023/02/21 03:37:37;;;;;;;29.65;12.73;;;9.30;99.90;;;;;;6191320;23;20079;-82
2023/02/21 03:40:09;;;;;;;30.25;12.70;;;9.60;99.90;;;;;;6192416;23;20012;-82
2023/02/21 03:42:35;;;;;;;31.83;11.70;;;9.20;99.90;;;;;;6231338;23;20152;-82
2023/02/21 03:45:01;;;;;;;29.52;11.00;;;9.60;99.90;;;;;;6217033;23;20012;-84
2023/02/21 03:47:27;;;;;;;25.35;11.80;;;9.30;99.90;;;;;;6190561;23;20052;-84
2023/02/21 03:49:52;;;;;;;35.05;12.00;;;9.70;99.90;;;;;;6216048;23;20125;-83
2023/02/21 03:52:37;;;;;;;26.55;10.95;;;9.40;99.90;;;;;;6191468;23;20012;-84
2023/02/21 03:55:03;;;;;;;26.02;11.07;;;9.60;99.90;;;;;;6216510;23;20381;-82
2023/02/21 03:57:29;;;;;;;29.45;10.30;;;9.20;99.90;;;;;;6215480;23;20071;-82
2023/02/21 03:59:55;;;;;;;27.25;10.15;;;9.50;99.90;;;;;;6191197;23;20155;-84
2023/02/21 04:02:21;;;;;;;23.88;9.90;;;9.60;99.90;;;;;;6190623;23;20188;-82
2023/02/21 04:04:47;;;;;;;21.58;10.60;;;9.50;99.90;;;;;;6195541;23;20076;-83
2023/02/21 04:07:15;;;;;;;28.05;11.52;;;9.50;99.90;;;;;;6221477;23;20016;-83
2023/02/21 04:09:41;;;;;;;25.33;11.98;;;9.70;99.90;;;;;;6191798;23;20058;-84
2023/02/21 04:12:07;;;;;;;26.90;11.45;;;9.30;99.90;;;;;;6216445;23;20085;-82
2023/02/21 04:14:33;;;;;;;25.33;11.48;;;9.20;99.90;;;;;;6217419;23;20340;-85
2023/02/21 04:16:59;;;;;;;28.92;12.05;;;9.70;99.90;;;;;;6217250;23;20024;-84
2023/02/21 04:19:24;;;;;;;27.10;11.50;;;9.50;99.90;;;;;;6215414;23;20054;-86
2023/02/21 04:21:50;;;;;;;30.00;12.07;;;9.30;99.90;;;;;;6217422;23;20480;-82
2023/02/21 04:24:16;;;;;;;24.35;11.27;;;9.80;99.90;;;;;;6193101;23;20020;-83
2023/02/21 04:26:42;;;;;;;33.85;11.55;;;9.40;99.90;;;;;;6207152;23;20031;-82
2023/02/21 04:29:07;;;;;;;22.85;12.65;;;9.80;99.90;;;;;;6204937;22;20024;-84
2023/02/21 04:31:33;;;;;;;27.70;13.10;;;9.40;99.90;;;;;;6192483;23;20012;-84
2023/02/21 04:34:00;;;;;;;31.35;14.20;;;9.40;99.90;;;;;;6192312;23;20020;-84
2023/02/21 04:36:26;;;;;;;35.13;14.48;;;9.30;99.90;;;;;;6192504;23;20047;-84
2023/02/21 04:38:52;;;;;;;26.58;14.18;;;9.40;99.90;;;;;;6215429;23;20081;-83
2023/02/21 04:41:18;;;;;;;31.90;14.18;;;9.70;99.90;;;;;;6216911;23;20034;-84
2023/02/21 04:43:44;;;;;;;32.05;14.57;;;9.30;99.90;;;;;;6192553;23;20039;-82
2023/02/21 04:46:15;;;;;;;31.00;15.77;;;9.70;99.90;;;;;;6217126;23;20031;-82
2023/02/21 04:48:46;;;;;;;29.58;15.43;;;9.30;99.90;;;;;;6216226;23;20012;-82
2023/02/21 04:51:31;;;;;;;30.38;15.25;;;9.30;99.90;;;;;;6216697;23;20040;-84
2023/02/21 04:53:56;;;;;;;29.70;14.73;;;9.40;99.90;;;;;;6191591;23;20077;-85
2023/02/21 04:56:24;;;;;;;31.98;16.42;;;9.60;99.90;;;;;;6216784;23;20004;-83
2023/02/21 04:58:50;;;;;;;31.20;16.08;;;9.50;99.90;;;;;;6191069;23;20034;-84
2023/02/21 05:01:18;;;;;;;30.92;16.75;;;9.60;99.90;;;;;;6216491;23;20035;-84
2023/02/21 05:03:44;;;;;;;35.55;16.85;;;9.60;99.90;;;;;;6192867;23;20012;-84
2023/02/21 05:06:16;;;;;;;34.20;17.25;;;9.20;99.90;;;;;;6216167;23;20010;-84
2023/02/21 05:08:41;;;;;;;34.92;14.85;;;9.10;99.90;;;;;;6215265;23;20016;-83
2023/02/21 05:11:07;;;;;;;34.40;17.38;;;9.20;99.90;;;;;;6192296;23;20024;-84
2023/02/21 05:13:33;;;;;;;33.78;17.23;;;9.10;99.90;;;;;;6191628;23;20119;-84
2023/02/21 05:15:59;;;;;;;36.38;17.75;;;9.10;99.90;;;;;;6192073;23;20028;-82
2023/02/21 05:18:27;;;;;;;35.42;18.00;;;9.40;99.90;;;;;;6190851;23;20309;-86
2023/02/21 05:20:53;;;;;;;33.38;17.90;;;9.00;99.90;;;;;;6191427;23;20061;-82
2023/02/21 05:23:32;;;;;;;31.67;17.73;;;9.50;99.90;;;;;;6215301;23;20012;-84
2023/02/21 05:26:16;;;;;;;34.05;17.85;;;9.00;99.90;;;;;;6190523;23;20015;-83
2023/02/21 05:28:42;;;;;;;35.95;18.23;;;9.40;99.90;;;;;;6190496;23;20012;-86
2023/02/21 05:31:08;;;;;;;34.47;17.67;;;9.00;99.90;;;;;;6216933;23;20074;-83
2023/02/21 05:33:33;;;;;;;31.08;18.20;;;9.20;99.90;;;;;;6192611;23;20068;-82
2023/02/21 05:35:59;;;;;;;32.22;18.40;;;9.50;99.90;;;;;;6217601;23;20047;-83
2023/02/21 05:38:26;;;;;;;38.13;18.50;;;9.60;99.90;;;;;;6217152;23;20016;-82
2023/02/21 05:40:51;;;;;;;34.78;16.98;;;9.10;99.90;;;;;;6192226;23;20116;-84
2023/02/21 05:43:17;;;;;;;36.55;18.00;;;9.50;99.90;;;;;;6244379;23;20020;-83
2023/02/21 05:45:43;;;;;;;37.90;16.90;;;9.40;99.90;;;;;;6216425;23;20117;-85
2023/02/21 05:48:09;;;;;;;39.88;18.88;;;9.10;99.90;;;;;;6243022;23;20008;-82
2023/02/21 05:50:34;;;;;;;37.58;16.05;;;9.50;99.90;;;;;;6216343;23;20016;-84
2023/02/21 05:53:01;;;;;;;37.10;18.10;;;9.40;99.90;;;;;;6191636;23;20020;-83
2023/02/21 05:55:27;;;;;;;34.05;17.58;;;9.40;99.90;;;;;;6191664;23;20020;-84
2023/02/21 05:57:54;;;;;;;32.70;18.05;;;9.30;99.90;;;;;;6190674;23;20092;-82
2023/02/21 06:00:26;;;;;;;34.10;16.50;;;9.40;99.90;;;;;;6190050;23;20008;-84
2023/02/21 06:02:53;;;;;;;33.22;18.08;;;9.00;99.90;;;;;;6190255;23;20016;-85
2023/02/21 06:05:20;;;;;;;34.03;18.58;;;9.00;99.90;;;;;;6192114;23;20381;-83
2023/02/21 06:07:46;;;;;;;35.55;16.63;;;9.40;99.90;;;;;;6215180;23;20405;-82
2023/02/21 06:10:12;;;;;;;33.97;18.17;;;9.50;99.90;;;;;;6216270;23;20340;-85
2023/02/21 06:12:38;;;;;;;38.15;18.65;;;9.10;99.90;;;;;;6191127;23;20050;-84
2023/02/21 06:15:08;;;;;;;33.47;18.15;;;9.40;99.90;;;;;;6192834;23;20039;-84
2023/02/21 06:17:35;;;;;;;36.83;18.67;;;9.40;99.90;;;;;;6192755;23;20107;-84
2023/02/21 06:20:02;;;;;;;32.47;17.75;;;9.10;99.90;;;;;;6194949;23;20004;-83
2023/02/21 06:22:27;;;;;;;36.10;18.33;;;9.20;99.90;;;;;;6191413;23;20047;-82
2023/02/21 06:24:53;;;;;;;34.80;17.85;;;9.40;99.90;;;;;;6192260;23;20023;-84
2023/02/21 06:27:19;;;;;;;37.00;16.63;;;9.20;99.90;;;;;;6191726;23;20020;-83
2023/02/21 06:29:45;;;;;;;34.95;18.25;;;9.50;99.90;;;;;;6190976;23;20099;-82
2023/02/21 06:32:10;;;;;;;32.50;16.55;;;9.20;99.90;;;;;;6191655;23;20016;-82
2023/02/21 06:34:36;;;;;;;32.28;15.85;;;9.40;99.90;;;;;;6217002;23;20024;-85
2023/02/21 06:37:02;;;;;;;36.20;18.65;;;9.50;99.90;;;;;;6216007;23;20012;-81
2023/02/21 06:39:28;;;;;;;37.40;19.08;;;9.50;99.90;;;;;;6189785;23;20050;-84
2023/02/21 06:41:53;;;;;;;39.63;18.60;;;9.40;99.90;;;;;;6216281;23;20012;-82
2023/02/21 06:44:19;;;;;;;39.85;18.20;;;9.40;99.90;;;;;;6215310;23;20012;-84
2023/02/21 06:46:49;;;;;;;41.15;19.98;;;9.30;99.90;;;;;;6216003;23;20074;-82
2023/02/21 06:49:15;;;;;;;41.03;19.30;;;9.20;99.90;;;;;;6193312;23;20043;-85
2023/02/21 06:51:41;;;;;;;43.65;19.65;;;9.00;99.90;;;;;;6218335;23;20027;-85
2023/02/21 06:54:08;;;;;;;37.55;19.90;;;9.00;99.90;;;;;;6214747;23;20012;-81
2023/02/21 06:56:34;;;;;;;45.72;20.63;;;8.80;99.90;;;;;;6216525;23;20044;-85
2023/02/21 06:59:00;;;;;;;38.55;17.95;;;8.90;99.90;;;;;;6214754;23;20435;-83
2023/02/21 07:01:27;;;;;;;41.30;19.90;;;9.40;99.90;;;;;;6242611;23;20008;-83
2023/02/21 07:03:57;;;;;;;41.35;20.40;;;9.40;99.90;;;;;;6192267;23;20082;-83
2023/02/21 07:06:23;;;;;;;45.30;20.35;;;9.40;99.90;;;;;;6188689;23;20016;-84
2023/02/21 07:08:49;;;;;;;35.90;18.63;;;9.40;99.90;;;;;;6191266;23;20118;-84
2023/02/21 07:11:15;;;;;;;24.13;11.60;;;9.00;99.90;;;;;;6190851;23;20016;-83
2023/02/21 07:13:52;;;;;;;37.05;19.50;;;9.30;99.90;;;;;;6189960;23;20415;-80
2023/02/21 07:16:19;;;;;;;44.25;20.35;;;9.40;99.90;;;;;;6190850;23;20632;-84
2023/02/21 07:18:46;;;;;;;46.83;19.88;;;8.90;99.90;;;;;;6191959;23;20012;-85
2023/02/21 07:21:13;;;;;;;39.40;18.98;;;8.90;99.90;;;;;;6190898;23;20455;-82
2023/02/21 07:23:39;;;;;;;45.22;20.95;;;9.00;99.90;;;;;;6215535;23;20020;-84
2023/02/21 07:26:04;;;;;;;48.30;20.92;;;8.90;99.90;;;;;;6190982;23;20101;-83
2023/02/21 07:28:30;;;;;;;41.13;20.38;;;9.40;99.90;;;;;;6188605;23;20026;-84
2023/02/21 07:30:56;;;;;;;42.65;20.77;;;9.00;99.90;;;;;;6214606;23;20099;-85
2023/02/21 07:33:21;;;;;;;41.65;20.92;;;8.90;99.90;;;;;;6213609;23;20305;-83
2023/02/21 07:35:47;;;;;;;38.75;20.50;;;9.30;99.90;;;;;;6190336;23;20369;-86
2023/02/21 07:38:24;;;;;;;48.17;20.23;;;9.20;99.90;;;;;;6188488;23;20055;-84
2023/02/21 07:40:49;;;;;;;48.05;22.08;;;9.20;99.90;;;;;;6215648;23;20016;-84
2023/02/21 07:43:16;;;;;;;47.58;21.83;;;9.20;99.90;;;;;;6214791;23;20083;-86
2023/02/21 07:45:41;;;;;;;43.35;22.77;;;9.00;99.90;;;;;;6193040;23;20020;-85
2023/02/21 07:48:07;;;;;;;41.85;21.83;;;9.20;99.90;;;;;;6215049;23;20015;-84
2023/02/21 07:50:33;;;;;;;44.50;22.30;;;9.40;99.90;;;;;;6190032;23;20071;-84
2023/02/21 07:52:59;;;;;;;42.95;22.58;;;9.00;99.90;;;;;;6215510;23;20020;-84
2023/02/21 07:55:25;;;;;;;46.50;22.00;;;9.00;99.90;;;;;;6191122;23;20062;-83
2023/02/21 07:57:51;;;;;;;47.63;21.05;;;9.10;99.90;;;;;;6240664;23;20305;-85
2023/02/21 08:00:17;;;;;;;37.92;21.30;;;9.20;99.90;;;;;;6190467;23;20016;-84
2023/02/21 08:02:48;;;;;;;37.80;18.25;;;9.40;99.90;;;;;;6191402;23;20351;-86
2023/02/21 08:05:15;;;;;;;38.55;20.40;;;9.20;99.90;;;;;;6216341;23;20062;-85
2023/02/21 08:07:41;;;;;;;49.80;21.80;;;9.20;99.90;;;;;;6189609;23;20039;-86
2023/02/21 08:10:07;;;;;;;47.13;22.15;;;9.50;99.90;;;;;;6223446;23;20022;-82
2023/02/21 08:12:33;;;;;;;53.47;22.23;;;9.40;99.90;;;;;;6191785;23;20385;-83
2023/02/21 08:14:58;;;;;;;42.75;21.67;;;9.50;99.90;;;;;;6189040;23;20008;-84
2023/02/21 08:17:25;;;;;;;40.63;21.67;;;9.60;99.90;;;;;;6215290;23;20012;-86
2023/02/21 08:19:50;;;;;;;36.67;18.05;;;9.40;99.90;;;;;;6214544;23;20447;-84
2023/02/21 08:22:16;;;;;;;45.25;21.65;;;9.30;99.90;;;;;;6216543;23;20019;-84
2023/02/21 08:24:42;;;;;;;45.10;22.38;;;9.10;99.90;;;;;;6193117;23;20012;-84
2023/02/21 08:27:08;;;;;;;40.67;21.58;;;9.10;99.90;;;;;;6192711;23;20332;-84
2023/02/21 08:29:33;;;;;;;41.70;21.25;;;9.30;99.90;;;;;;6197418;23;20113;-82
2023/02/21 08:31:59;;;;;;;39.70;21.10;;;9.30;99.90;;;;;;6193441;23;20012;-85
2023/02/21 08:34:28;;;;;;;43.95;21.58;;;9.80;99.90;;;;;;6190704;23;20031;-83
2023/02/21 08:36:54;;;;;;;38.40;22.10;;;9.80;99.90;;;;;;6189990;23;20048;-84
2023/02/21 08:39:19;;;;;;;39.08;21.02;;;9.80;99.90;;;;;;6242161;23;20012;-83
2023/02/21 08:41:50;;;;;;;33.88;18.95;;;10.00;99.90;;;;;;6215885;23;20062;-86
2023/02/21 08:44:17;;;;;;;40.40;21.20;;;9.70;99.90;;;;;;6214922;23;20020;-84
2023/02/21 08:46:43;;;;;;;43.33;21.77;;;9.60;99.90;;;;;;6189804;23;20497;-84
2023/02/21 08:49:09;;;;;;;40.55;20.83;;;9.90;99.90;;;;;;6192392;23;20013;-86
2023/02/21 08:51:35;;;;;;;39.40;21.73;;;9.90;99.90;;;;;;6191903;23;20023;-87
2023/02/21 08:54:02;;;;;;;36.08;19.70;;;9.60;99.90;;;;;;6192653;23;20047;-86
2023/02/21 08:56:29;;;;;;;35.63;21.35;;;9.70;99.90;;;;;;6191898;23;20008;-84
2023/02/21 08:58:55;;;;;;;44.83;22.25;;;9.90;99.90;;;;;;6191774;23;20016;-83
2023/02/21 09:01:23;;;;;;;44.90;22.92;;;9.80;99.90;;;;;;6191972;23;20024;-85
2023/02/21 09:03:49;;;;;;;41.15;21.65;;;9.60;99.90;;;;;;6217519;23;20016;-86
2023/02/21 09:06:15;;;;;;;40.15;22.10;;;9.60;99.90;;;;;;6191511;23;20020;-83
2023/02/21 09:08:41;;;;;;;44.00;22.38;;;9.90;99.90;;;;;;6192463;23;20109;-84
2023/02/21 09:11:07;;;;;;;41.47;22.38;;;9.60;99.90;;;;;;6193130;23;20012;-82
2023/02/21 09:13:33;;;;;;;43.10;22.13;;;9.90;99.90;;;;;;6193507;23;20043;-84
2023/02/21 09:16:01;;;;;;;39.40;20.48;;;9.90;99.90;;;;;;6193615;23;20016;-82
2023/02/21 09:18:29;;;;;;;40.33;21.33;;;10.20;99.90;;;;;;6192684;23;20012;-83
2023/02/21 09:20:56;;;;;;;39.60;21.65;;;10.20;99.90;;;;;;6217575;23;20012;-84
2023/02/21 09:23:24;;;;;;;40.15;21.33;;;10.00;99.90;;;;;;6192634;23;20012;-85
2023/02/21 09:25:50;;;;;;;39.53;21.92;;;10.00;99.90;;;;;;6191637;23;20016;-84
2023/02/21 09:28:17;;;;;;;40.13;21.45;;;9.80;99.90;;;;;;6192135;23;20016;-85
2023/02/21 09:30:43;;;;;;;32.00;20.85;;;10.30;99.90;;;;;;6191709;23;20047;-86
2023/02/21 09:33:10;;;;;;;35.75;21.52;;;9.80;99.90;;;;;;6190994;23;20020;-85
2023/02/21 09:35:36;;;;;;;38.78;21.75;;;10.20;99.90;;;;;;6191316;23;20027;-84
2023/02/21 09:38:20;;;;;;;33.80;20.70;;;10.00;99.90;;;;;;6191565;23;20521;-88
2023/02/21 09:40:58;;;;;;;36.80;21.48;;;10.00;99.90;;;;;;6192746;23;20012;-86
2023/02/21 09:43:30;;;;;;;39.00;22.17;;;10.30;99.90;;;;;;6191117;23;20019;-86
2023/02/21 09:46:00;;;;;;;37.25;19.48;;;10.40;99.90;;;;;;6192547;23;20039;-86
2023/02/21 09:48:27;;;;;;;30.45;17.75;;;10.30;99.90;;;;;;6191831;23;20095;-85
2023/02/21 09:50:56;;;;;;;36.65;19.90;;;10.30;99.90;;;;;;6193505;23;20016;-87
2023/02/21 09:53:45;;;;;;;37.33;20.63;;;10.20;99.90;;;;;;6193718;23;20023;-85
2023/02/21 09:56:27;;;;;;;31.77;20.00;;;10.60;99.90;;;;;;6193533;23;20031;-86
2023/02/21 09:58:54;;;;;;;39.70;20.67;;;10.30;99.90;;;;;;6192977;23;20019;-83
2023/02/21 10:01:45;;;;;;;32.85;19.50;;;10.30;99.90;;;;;;6194684;23;20035;-84
2023/02/21 10:04:48;;;;;;;34.25;20.25;;;10.50;99.90;;;;;;6193686;23;20023;-84
2023/02/21 10:07:39;;;;;;;33.67;19.92;;;10.10;99.90;;;;;;6193391;23;20050;-86
2023/02/21 10:10:28;;;;;;;33.78;19.90;;;10.50;99.90;;;;;;6194704;23;20096;-87
2023/02/21 10:13:06;;;;;;;32.47;17.67;;;10.50;99.90;;;;;;6194171;23;20012;-87
2023/02/21 10:15:54;;;;;;;34.97;19.90;;;10.50;99.90;;;;;;6192094;23;20327;-84
2023/02/21 10:18:47;;;;;;;31.75;19.55;;;10.40;99.90;;;;;;6194456;23;20023;-84
2023/02/21 10:21:24;;;;;;;33.15;20.48;;;10.40;99.90;;;;;;6192861;23;20507;-84
2023/02/21 10:23:53;;;;;;;34.88;20.33;;;10.20;99.90;;;;;;6194405;23;20012;-83
2023/02/21 10:26:25;;;;;;;31.70;20.50;;;10.40;99.90;;;;;;6245555;23;20008;-84
2023/02/21 10:28:51;;;;;;;35.65;19.98;;;10.20;99.90;;;;;;6194616;23;20012;-86
2023/02/21 10:31:31;;;;;;;36.60;19.45;;;10.50;99.90;;;;;;6217493;23;20439;-86
2023/02/21 10:33:58;;;;;;;33.33;19.48;;;10.40;99.90;;;;;;6194922;23;20435;-82
2023/02/21 10:36:30;;;;;;;36.95;21.15;;;10.70;99.90;;;;;;6196460;23;20090;-83
2023/02/21 10:39:02;;;;;;;36.78;20.70;;;10.60;99.90;;;;;;6247778;23;20060;-84
2023/02/21 10:41:33;;;;;;;31.63;19.35;;;10.90;99.90;;;;;;6196821;23;20184;-85
2023/02/21 10:44:29;;;;;;;32.08;17.80;;;10.60;99.90;;;;;;6195654;23;20336;-84
2023/02/21 10:47:04;;;;;;;29.88;19.25;;;10.50;99.90;;;;;;6216332;23;20114;-84
2023/02/21 10:49:43;;;;;;;37.85;19.65;;;10.70;99.90;;;;;;6193153;23;20013;-86
2023/02/21 10:56:19;;;;;;;35.53;19.27;;;10.90;99.90;;;;;;6245111;23;20093;-83
2023/02/21 10:58:48;;;;;;;31.50;18.73;;;10.50;99.90;;;;;;6191507;23;20020;-85
2023/02/21 11:01:16;;;;;;;27.13;18.10;;;10.40;99.90;;;;;;6217795;23;20031;-86
2023/02/21 11:03:48;;;;;;;30.55;18.75;;;10.50;99.90;;;;;;6219288;23;20012;-85
2023/02/21 11:06:26;;;;;;;30.17;17.42;;;10.90;99.90;;;;;;6217653;23;20016;-87
2023/02/21 11:08:52;;;;;;;35.35;20.10;;;10.60;99.90;;;;;;6192705;23;20096;-86
2023/02/21 11:11:39;;;;;;;27.10;16.10;;;10.60;99.90;;;;;;6192933;23;20023;-81
2023/02/21 11:14:17;;;;;;;32.25;18.63;;;10.90;99.90;;;;;;6192969;23;20038;-83
2023/02/21 11:16:43;;;;;;;31.17;18.98;;;10.70;99.90;;;;;;6193274;23;20016;-84
2023/02/21 11:19:13;;;;;;;31.38;19.08;;;11.10;99.90;;;;;;6191857;23;20146;-83
2023/02/21 11:21:59;;;;;;;32.95;16.38;;;11.00;99.90;;;;;;6192783;23;20012;-85
2023/02/21 11:28:12;;;;;;;23.45;14.25;;;10.70;99.90;;;;;;6039195;23;20019;-85
2023/02/21 11:30:44;;;;;;;30.95;18.42;;;11.00;99.90;;;;;;6013591;23;20071;-86
2023/02/21 11:33:09;;;;;;;22.90;13.30;;;11.00;99.90;;;;;;6013267;23;20029;-84
2023/02/21 11:35:53;;;;;;;24.42;15.77;;;11.10;99.90;;;;;;6040515;23;20022;-84
2023/02/21 11:38:42;;;;;;;27.35;15.35;;;11.00;99.90;;;;;;6014508;23;20015;-84
2023/02/21 11:41:36;;;;;;;28.23;16.65;;;10.90;99.90;;;;;;6016662;23;20032;-85
2023/02/21 11:44:23;;;;;;;29.48;17.42;;;10.90;99.90;;;;;;6011518;23;20428;-84
2023/02/21 11:46:54;;;;;;;27.83;17.40;;;11.10;99.90;;;;;;6062731;23;20019;-82
2023/02/21 11:49:31;;;;;;;27.27;16.63;;;10.90;99.90;;;;;;6038063;23;20030;-85
2023/02/21 11:52:03;;;;;;;33.25;16.63;;;11.20;99.90;;;;;;6014932;23;20185;-83
2023/02/21 11:54:30;;;;;;;24.98;15.93;;;10.90;99.90;;;;;;6014049;23;20022;-82
2023/02/21 11:57:13;;;;;;;24.98;15.43;;;11.10;99.90;;;;;;6015314;23;20046;-83
2023/02/21 11:59:52;;;;;;;27.08;16.67;;;11.10;99.90;;;;;;6013471;23;20443;-82
2023/02/21 12:02:54;;;;;;;27.45;16.35;;;10.80;99.90;;;;;;6014824;23;20026;-85
2023/02/21 12:05:46;;;;;;;26.00;15.27;;;10.90;99.90;;;;;;6088125;23;20078;-83
2023/02/21 12:08:46;;;;;;;25.30;16.25;;;10.80;99.90;;;;;;6095513;23;20077;-83
2023/02/21 12:11:43;;;;;;;30.55;16.15;;;11.00;99.90;;;;;;6070419;23;20053;-81
2023/02/21 12:14:32;;;;;;;29.20;16.75;;;11.00;99.90;;;;;;6091825;23;20049;-85
2023/02/21 12:17:33;;;;;;;31.20;16.55;;;11.00;99.90;;;;;;6072466;23;20014;-82
2023/02/21 12:20:37;;;;;;;26.35;16.63;;;10.80;99.90;;;;;;6015034;23;20015;-83
2023/02/21 12:23:22;;;;;;;25.60;16.10;;;11.10;99.90;;;;;;6040094;23;20118;-83
2023/02/21 12:26:18;;;;;;;30.17;16.63;;;11.10;99.90;;;;;;6036206;23;20042;-83
2023/02/21 12:28:47;;;;;;;24.10;15.52;;;11.00;99.90;;;;;;6015274;23;20401;-85
2023/02/21 12:31:29;;;;;;;23.55;15.43;;;10.90;99.90;;;;;;6036998;23;20023;-84
2023/02/21 12:34:08;;;;;;;26.42;15.75;;;11.10;99.90;;;;;;6014899;23;20082;-83
2023/02/21 12:40:40;;;;;;;28.30;14.32;;;11.10;99.90;;;;;;6138108;23;20016;-79
2023/02/21 12:43:25;;;;;;;26.42;15.07;;;10.90;99.90;;;;;;6104660;23;20078;-83
2023/02/21 12:46:04;;;;;;;25.57;15.43;;;10.90;99.90;;;;;;6100974;23;20101;-82
2023/02/21 12:48:36;;;;;;;25.13;14.60;;;11.00;99.90;;;;;;6101094;23;20150;-80
2023/02/21 12:51:09;;;;;;;26.45;16.20;;;11.20;99.90;;;;;;6100718;23;20075;-84
2023/02/21 12:53:48;;;;;;;23.98;14.90;;;11.20;99.90;;;;;;6099351;23;20120;-80
2023/02/21 12:56:14;;;;;;;28.17;15.45;;;10.90;99.90;;;;;;6171834;23;20050;-81
2023/02/21 12:58:56;;;;;;;25.17;15.10;;;11.00;99.90;;;;;;6199759;23;20095;-82
2023/02/21 13:01:28;;;;;;;27.52;15.25;;;11.10;99.90;;;;;;6190135;23;20019;-85
2023/02/21 13:04:23;;;;;;;30.88;19.85;;;11.20;99.90;;;;;;6189267;23;20444;-85
2023/02/21 13:07:02;;;;;;;24.37;14.97;;;11.20;99.90;;;;;;6183783;23;20016;-86
2023/02/21 13:09:44;;;;;;;24.10;13.02;;;11.50;99.90;;;;;;6189509;23;20379;-83
2023/02/21 13:12:18;;;;;;;18.45;11.57;;;11.20;99.90;;;;;;6191682;23;20004;-82
2023/02/21 13:14:48;;;;;;;22.83;13.15;;;11.50;99.90;;;;;;6192935;23;20038;-82
2023/02/21 13:17:16;;;;;;;22.13;13.32;;;11.30;99.90;;;;;;6191196;23;20099;-84
2023/02/21 13:20:06;;;;;;;20.50;14.07;;;11.20;99.90;;;;;;6188599;23;20016;-85
2023/02/21 13:23:02;;;;;;;23.73;14.10;;;11.20;99.90;;;;;;6190901;23;20012;-85
2023/02/21 13:25:37;;;;;;;22.80;14.50;;;11.00;99.90;;;;;;6215972;23;20434;-83
2023/02/21 13:28:27;;;;;;;23.33;13.35;;;11.10;99.90;;;;;;6214969;23;20048;-85
2023/02/21 13:30:58;;;;;;;23.42;14.48;;;11.00;99.90;;;;;;6217193;23;20118;-82
2023/02/21 13:33:28;;;;;;;23.33;15.48;;;11.00;99.90;;;;;;6190069;23;20047;-84
2023/02/21 13:35:57;;;;;;;26.00;15.85;;;11.00;99.90;;;;;;6213240;23;20020;-85
2023/02/21 13:38:42;;;;;;;25.38;15.55;;;11.20;99.90;;;;;;6190386;23;20223;-82
2023/02/21 13:41:15;;;;;;;25.73;16.50;;;11.20;99.90;;;;;;6214488;23;20107;-81
2023/02/21 13:43:52;;;;;;;28.00;15.98;;;10.90;99.90;;;;;;6221408;23;20012;-79
2023/02/21 13:46:30;;;;;;;27.40;16.50;;;10.90;99.90;;;;;;6200740;23;20087;-83
2023/02/21 13:49:33;;;;;;;22.90;15.38;;;10.90;99.90;;;;;;6212886;23;20024;-81
2023/02/21 13:52:24;;;;;;;25.77;15.77;;;10.90;99.90;;;;;;6210380;23;20477;-83
2023/02/21 13:55:14;;;;;;;27.85;15.77;;;10.90;99.90;;;;;;6187464;23;20019;-81
2023/02/21 13:57:59;;;;;;;28.77;18.42;;;11.10;99.90;;;;;;6213528;23;20044;-88
2023/02/21 14:00:24;;;;;;;42.38;26.38;;;10.90;99.90;;;;;;6212491;23;20008;-85
2023/02/21 14:03:19;;;;;;;31.02;19.90;;;10.90;99.90;;;;;;6187464;23;20016;-83
2023/02/21 14:05:53;;;;;;;25.80;17.52;;;10.90;99.90;;;;;;6088455;23;20018;-84
2023/02/21 14:08:26;;;;;;;28.45;19.65;;;10.70;99.90;;;;;;6039481;23;20019;-83
2023/02/21 14:10:57;;;;;;;27.88;20.40;;;10.80;99.90;;;;;;6063422;23;20018;-84
2023/02/21 14:13:44;;;;;;;30.70;20.25;;;10.80;99.90;;;;;;6037696;23;20018;-83
2023/02/21 14:16:13;;;;;;;33.17;20.33;;;10.70;99.90;;;;;;6061433;23;20424;-83
2023/02/21 14:18:46;;;;;;;35.08;20.35;;;10.50;99.90;;;;;;6064345;23;20026;-86
2023/02/21 14:21:18;;;;;;;31.13;19.70;;;10.70;99.90;;;;;;6064272;23;20025;-80
2023/02/21 14:24:11;;;;;;;26.73;18.42;;;10.80;99.90;;;;;;6037878;23;20049;-82
2023/02/21 14:27:06;;;;;;;31.95;19.52;;;10.70;99.90;;;;;;6038102;23;20054;-86
2023/02/21 14:30:00;;;;;;;33.42;19.88;;;10.50;99.90;;;;;;5974472;24;20020;-82
2023/02/21 14:32:33;;;;;;;37.40;19.88;;;10.90;99.90;;;;;;5951900;24;20048;-86
2023/02/21 14:35:00;;;;;;;29.35;19.75;;;10.80;99.90;;;;;;5966626;23;20024;-84
2023/02/21 14:38:12;;;;;;;30.10;19.55;;;10.60;99.90;;;;;;5980626;23;20103;-88
2023/02/21 14:41:00;;;;;;;31.05;19.90;;;10.60;99.90;;;;;;5981801;23;20436;-84
2023/02/21 14:44:03;;;;;;;32.25;19.95;;;10.80;99.90;;;;;;5999009;23;20016;-84
2023/02/21 14:46:46;;;;;;;33.03;21.15;;;10.50;99.90;;;;;;6032120;23;20019;-83
2023/02/21 14:49:40;;;;;;;33.03;19.13;;;10.70;99.90;;;;;;5990083;23;20015;-83
2023/02/21 14:52:11;;;;;;;31.30;21.27;;;10.60;99.90;;;;;;5987901;23;20034;-85
2023/02/21 14:54:51;;;;;;;30.17;20.13;;;10.40;99.90;;;;;;6033061;23;20019;-83
2023/02/21 14:57:34;;;;;;;35.10;21.75;;;10.50;99.90;;;;;;5986681;23;20083;-85
2023/02/21 15:00:33;;;;;;;33.20;19.70;;;10.50;99.90;;;;;;6035599;23;20015;-87
2023/02/21 15:03:20;;;;;;;29.92;20.08;;;10.70;99.90;;;;;;6012055;23;20023;-83
2023/02/21 15:05:49;;;;;;;32.45;20.58;;;10.60;99.90;;;;;;6034248;23;20176;-84
2023/02/21 15:08:22;;;;;;;34.03;21.08;;;10.30;99.90;;;;;;6125809;23;20017;-85
2023/02/21 15:10:50;;;;;;;34.70;20.65;;;10.30;99.90;;;;;;6101448;23;20074;-87
2023/02/21 15:13:29;;;;;;;31.30;22.27;;;10.70;99.90;;;;;;6100155;23;20025;-86
2023/02/21 15:16:01;;;;;;;30.23;21.30;;;10.20;99.90;;;;;;6124267;23;20014;-85
2023/02/21 15:18:29;;;;;;;27.42;19.95;;;10.60;99.90;;;;;;6149951;23;20116;-83
2023/02/21 15:21:10;;;;;;;25.88;18.73;;;10.20;99.90;;;;;;6201542;23;20047;-83
2023/02/21 15:23:37;;;;;;;28.25;20.40;;;10.00;99.90;;;;;;6239618;23;20535;-83
2023/02/21 15:26:20;;;;;;;28.92;19.58;;;10.60;99.90;;;;;;6242509;23;20115;-83
2023/02/21 15:29:02;;;;;;;32.42;21.35;;;10.00;99.90;;;;;;6217640;23;20778;-86
2023/02/21 15:31:40;;;;;;;30.10;20.52;;;10.30;99.90;;;;;;6244217;23;20050;-84
2023/02/21 15:34:20;;;;;;;29.17;21.08;;;10.40;99.90;;;;;;6244669;23;20024;-85